sensor_id;sensor_type;location;lat;lon;timestamp;P1;durP1;ratioP1;P2;durP2;ratioP2
9304;SDS011;4690;52.422;13.486;2023-08-06T00:00:05;7.65;;;6.95;;
9304;SDS011;4690;52.422;13.486;2023-08-06T00:12:54;7.55;;;6.57;;
9304;SDS011;4690;52.422;13.486;2023-08-06T00:15:19;7.50;;;6.90;;
9304;SDS011;4690;52.422;13.486;2023-08-06T00:17:45;7.65;;;6.90;;
9304;SDS011;4690;52.422;13.486;2023-08-06T00:20:11;7.43;;;6.72;;
9304;SDS011;4690;52.422;13.486;2023-08-06T00:22:37;7.63;;;7.00;;
9304;SDS011;4690;52.422;13.486;2023-08-06T00:25:04;6.70;;;6.20;;
9304;SDS011;4690;52.422;13.486;2023-08-06T00:27:30;8.75;;;6.93;;
9304;SDS011;4690;52.422;13.486;2023-08-06T00:29:57;7.13;;;6.63;;
9304;SDS011;4690;52.422;13.486;2023-08-06T00:32:23;7.43;;;6.82;;
9304;SDS011;4690;52.422;13.486;2023-08-06T00:34:49;7.55;;;6.95;;
9304;SDS011;4690;52.422;13.486;2023-08-06T00:37:18;7.72;;;7.03;;
9304;SDS011;4690;52.422;13.486;2023-08-06T00:39:44;7.28;;;6.68;;
9304;SDS011;4690;52.422;13.486;2023-08-06T00:42:10;7.80;;;7.20;;
9304;SDS011;4690;52.422;13.486;2023-08-06T00:44:37;7.07;;;6.47;;
9304;SDS011;4690;52.422;13.486;2023-08-06T00:47:04;6.93;;;6.43;;
9304;SDS011;4690;52.422;13.486;2023-08-06T00:49:33;7.55;;;6.95;;
9304;SDS011;4690;52.422;13.486;2023-08-06T00:52:01;7.95;;;7.32;;
9304;SDS011;4690;52.422;13.486;2023-08-06T00:54:29;7.40;;;6.80;;
9304;SDS011;4690;52.422;13.486;2023-08-06T00:56:56;7.75;;;7.03;;
9304;SDS011;4690;52.422;13.486;2023-08-06T00:59:23;8.15;;;7.35;;
9304;SDS011;4690;52.422;13.486;2023-08-06T01:01:49;7.40;;;6.80;;
9304;SDS011;4690;52.422;13.486;2023-08-06T01:04:16;8.10;;;7.40;;
9304;SDS011;4690;52.422;13.486;2023-08-06T01:06:47;7.57;;;6.97;;
9304;SDS011;4690;52.422;13.486;2023-08-06T01:12:38;8.10;;;7.40;;
9304;SDS011;4690;52.422;13.486;2023-08-06T01:15:23;7.70;;;7.10;;
9304;SDS011;4690;52.422;13.486;2023-08-06T01:17:54;7.38;;;6.78;;
9304;SDS011;4690;52.422;13.486;2023-08-06T01:20:20;6.82;;;6.30;;
9304;SDS011;4690;52.422;13.486;2023-08-06T01:22:46;8.10;;;7.40;;
9304;SDS011;4690;52.422;13.486;2023-08-06T01:25:12;7.80;;;7.20;;
9304;SDS011;4690;52.422;13.486;2023-08-06T01:27:46;7.93;;;7.22;;
9304;SDS011;4690;52.422;13.486;2023-08-06T01:30:19;7.78;;;7.18;;
9304;SDS011;4690;52.422;13.486;2023-08-06T01:32:58;7.07;;;6.57;;
9304;SDS011;4690;52.422;13.486;2023-08-06T01:35:28;7.95;;;7.35;;
9304;SDS011;4690;52.422;13.486;2023-08-06T01:37:57;8.27;;;7.68;;
9304;SDS011;4690;52.422;13.486;2023-08-06T01:40:26;7.78;;;7.18;;
9304;SDS011;4690;52.422;13.486;2023-08-06T01:42:54;7.82;;;7.22;;
9304;SDS011;4690;52.422;13.486;2023-08-06T01:45:20;8.32;;;7.53;;
9304;SDS011;4690;52.422;13.486;2023-08-06T01:47:46;8.57;;;7.82;;
9304;SDS011;4690;52.422;13.486;2023-08-06T01:50:11;9.60;;;8.70;;
9304;SDS011;4690;52.422;13.486;2023-08-06T01:52:37;8.63;;;8.02;;
9304;SDS011;4690;52.422;13.486;2023-08-06T01:55:03;8.90;;;8.20;;
9304;SDS011;4690;52.422;13.486;2023-08-06T01:57:29;8.25;;;7.50;;
9304;SDS011;4690;52.422;13.486;2023-08-06T01:59:55;8.38;;;7.63;;
9304;SDS011;4690;52.422;13.486;2023-08-06T02:02:20;8.38;;;7.68;;
9304;SDS011;4690;52.422;13.486;2023-08-06T02:04:46;8.63;;;7.70;;
9304;SDS011;4690;52.422;13.486;2023-08-06T02:07:12;8.57;;;7.88;;
9304;SDS011;4690;52.422;13.486;2023-08-06T02:09:38;7.97;;;7.38;;
9304;SDS011;4690;52.422;13.486;2023-08-06T02:12:03;8.60;;;7.90;;
9304;SDS011;4690;52.422;13.486;2023-08-06T02:14:31;7.50;;;6.90;;
9304;SDS011;4690;52.422;13.486;2023-08-06T02:16:57;7.93;;;7.15;;
9304;SDS011;4690;52.422;13.486;2023-08-06T02:19:23;7.60;;;7.00;;
9304;SDS011;4690;52.422;13.486;2023-08-06T02:21:48;7.47;;;6.88;;
9304;SDS011;4690;52.422;13.486;2023-08-06T02:24:14;7.38;;;6.78;;
9304;SDS011;4690;52.422;13.486;2023-08-06T02:26:40;7.15;;;6.57;;
9304;SDS011;4690;52.422;13.486;2023-08-06T02:29:05;7.00;;;6.40;;
9304;SDS011;4690;52.422;13.486;2023-08-06T02:31:31;6.63;;;6.03;;
9304;SDS011;4690;52.422;13.486;2023-08-06T02:33:57;6.40;;;5.90;;
9304;SDS011;4690;52.422;13.486;2023-08-06T02:36:23;6.97;;;6.38;;
9304;SDS011;4690;52.422;13.486;2023-08-06T02:38:49;5.78;;;5.38;;
9304;SDS011;4690;52.422;13.486;2023-08-06T02:41:15;6.47;;;5.97;;
9304;SDS011;4690;52.422;13.486;2023-08-06T02:43:41;6.55;;;6.00;;
9304;SDS011;4690;52.422;13.486;2023-08-06T02:46:06;6.30;;;5.80;;
9304;SDS011;4690;52.422;13.486;2023-08-06T02:48:32;6.78;;;6.28;;
9304;SDS011;4690;52.422;13.486;2023-08-06T02:50:58;7.05;;;6.43;;
9304;SDS011;4690;52.422;13.486;2023-08-06T02:53:25;6.50;;;6.00;;
9304;SDS011;4690;52.422;13.486;2023-08-06T02:55:51;6.85;;;6.25;;
9304;SDS011;4690;52.422;13.486;2023-08-06T02:58:17;6.25;;;5.75;;
9304;SDS011;4690;52.422;13.486;2023-08-06T03:00:47;7.03;;;6.43;;
9304;SDS011;4690;52.422;13.486;2023-08-06T03:03:28;6.68;;;6.07;;
9304;SDS011;4690;52.422;13.486;2023-08-06T03:05:55;6.65;;;6.15;;
9304;SDS011;4690;52.422;13.486;2023-08-06T03:08:21;6.50;;;6.00;;
9304;SDS011;4690;52.422;13.486;2023-08-06T03:10:48;6.93;;;6.43;;
9304;SDS011;4690;52.422;13.486;2023-08-06T03:13:14;6.78;;;6.28;;
9304;SDS011;4690;52.422;13.486;2023-08-06T03:15:41;6.82;;;6.22;;
9304;SDS011;4690;52.422;13.486;2023-08-06T03:18:08;6.15;;;5.72;;
9304;SDS011;4690;52.422;13.486;2023-08-06T03:20:34;7.20;;;6.60;;
9304;SDS011;4690;52.422;13.486;2023-08-06T03:22:59;7.13;;;6.53;;
9304;SDS011;4690;52.422;13.486;2023-08-06T03:25:25;7.90;;;7.30;;
9304;SDS011;4690;52.422;13.486;2023-08-06T03:27:51;6.97;;;6.40;;
9304;SDS011;4690;52.422;13.486;2023-08-06T03:30:16;6.90;;;6.32;;
9304;SDS011;4690;52.422;13.486;2023-08-06T03:32:42;7.32;;;6.78;;
9304;SDS011;4690;52.422;13.486;2023-08-06T03:35:08;7.65;;;7.05;;
9304;SDS011;4690;52.422;13.486;2023-08-06T03:37:34;7.68;;;7.07;;
9304;SDS011;4690;52.422;13.486;2023-08-06T03:39:59;7.40;;;6.90;;
9304;SDS011;4690;52.422;13.486;2023-08-06T03:42:25;7.15;;;6.65;;
9304;SDS011;4690;52.422;13.486;2023-08-06T03:44:51;6.82;;;6.22;;
9304;SDS011;4690;52.422;13.486;2023-08-06T03:47:17;7.63;;;7.07;;
9304;SDS011;4690;52.422;13.486;2023-08-06T03:49:42;7.70;;;7.00;;
9304;SDS011;4690;52.422;13.486;2023-08-06T03:52:08;7.60;;;6.90;;
9304;SDS011;4690;52.422;13.486;2023-08-06T03:54:34;7.55;;;6.95;;
9304;SDS011;4690;52.422;13.486;2023-08-06T03:57:00;7.25;;;6.68;;
9304;SDS011;4690;52.422;13.486;2023-08-06T03:59:26;8.30;;;7.60;;
9304;SDS011;4690;52.422;13.486;2023-08-06T04:01:51;8.35;;;7.65;;
9304;SDS011;4690;52.422;13.486;2023-08-06T04:04:17;8.13;;;7.45;;
9304;SDS011;4690;52.422;13.486;2023-08-06T04:06:43;8.55;;;7.85;;
9304;SDS011;4690;52.422;13.486;2023-08-06T04:09:08;8.02;;;7.38;;
9304;SDS011;4690;52.422;13.486;2023-08-06T04:11:34;8.23;;;7.63;;
9304;SDS011;4690;52.422;13.486;2023-08-06T04:14:00;8.23;;;7.60;;
9304;SDS011;4690;52.422;13.486;2023-08-06T04:16:26;7.88;;;7.35;;
9304;SDS011;4690;52.422;13.486;2023-08-06T04:18:51;8.50;;;7.80;;
9304;SDS011;4690;52.422;13.486;2023-08-06T04:21:18;8.73;;;8.00;;
9304;SDS011;4690;52.422;13.486;2023-08-06T04:23:44;8.65;;;7.95;;
9304;SDS011;4690;52.422;13.486;2023-08-06T04:26:10;8.68;;;8.05;;
9304;SDS011;4690;52.422;13.486;2023-08-06T04:28:36;9.00;;;8.20;;
9304;SDS011;4690;52.422;13.486;2023-08-06T04:31:01;8.50;;;7.80;;
9304;SDS011;4690;52.422;13.486;2023-08-06T04:33:27;8.80;;;8.10;;
9304;SDS011;4690;52.422;13.486;2023-08-06T04:35:53;8.52;;;7.85;;
9304;SDS011;4690;52.422;13.486;2023-08-06T04:38:20;9.70;;;9.00;;
9304;SDS011;4690;52.422;13.486;2023-08-06T04:40:48;8.10;;;7.50;;
9304;SDS011;4690;52.422;13.486;2023-08-06T04:43:14;8.93;;;8.13;;
9304;SDS011;4690;52.422;13.486;2023-08-06T04:45:45;8.57;;;7.95;;
9304;SDS011;4690;52.422;13.486;2023-08-06T04:48:14;8.80;;;8.02;;
9304;SDS011;4690;52.422;13.486;2023-08-06T04:50:44;8.82;;;8.02;;
9304;SDS011;4690;52.422;13.486;2023-08-06T04:53:15;9.77;;;8.88;;
9304;SDS011;4690;52.422;13.486;2023-08-06T04:55:41;9.80;;;9.00;;
9304;SDS011;4690;52.422;13.486;2023-08-06T04:58:09;9.32;;;8.60;;
9304;SDS011;4690;52.422;13.486;2023-08-06T05:00:35;9.75;;;8.95;;
9304;SDS011;4690;52.422;13.486;2023-08-06T05:03:02;9.55;;;8.65;;
9304;SDS011;4690;52.422;13.486;2023-08-06T05:05:28;8.88;;;8.18;;
9304;SDS011;4690;52.422;13.486;2023-08-06T05:07:54;9.80;;;8.93;;
9304;SDS011;4690;52.422;13.486;2023-08-06T05:10:23;9.35;;;8.65;;
9304;SDS011;4690;52.422;13.486;2023-08-06T05:12:51;10.02;;;9.02;;
9304;SDS011;4690;52.422;13.486;2023-08-06T05:15:17;9.75;;;8.95;;
9304;SDS011;4690;52.422;13.486;2023-08-06T05:17:43;10.05;;;9.10;;
9304;SDS011;4690;52.422;13.486;2023-08-06T05:20:08;8.35;;;7.65;;
9304;SDS011;4690;52.422;13.486;2023-08-06T05:22:35;11.13;;;10.10;;
9304;SDS011;4690;52.422;13.486;2023-08-06T05:25:01;10.10;;;9.30;;
9304;SDS011;4690;52.422;13.486;2023-08-06T05:27:27;10.60;;;9.80;;
9304;SDS011;4690;52.422;13.486;2023-08-06T05:29:54;11.38;;;10.35;;
9304;SDS011;4690;52.422;13.486;2023-08-06T05:32:23;10.93;;;9.90;;
9304;SDS011;4690;52.422;13.486;2023-08-06T05:34:49;11.45;;;10.45;;
9304;SDS011;4690;52.422;13.486;2023-08-06T05:37:15;9.98;;;9.18;;
9304;SDS011;4690;52.422;13.486;2023-08-06T05:39:40;8.45;;;7.85;;
9304;SDS011;4690;52.422;13.486;2023-08-06T05:42:06;8.80;;;8.10;;
9304;SDS011;4690;52.422;13.486;2023-08-06T05:44:32;10.18;;;9.40;;
9304;SDS011;4690;52.422;13.486;2023-08-06T05:46:58;9.32;;;8.52;;
9304;SDS011;4690;52.422;13.486;2023-08-06T05:49:24;9.00;;;8.30;;
9304;SDS011;4690;52.422;13.486;2023-08-06T05:51:50;8.65;;;7.95;;
9304;SDS011;4690;52.422;13.486;2023-08-06T05:54:18;9.35;;;8.57;;
9304;SDS011;4690;52.422;13.486;2023-08-06T05:56:44;8.80;;;8.10;;
9304;SDS011;4690;52.422;13.486;2023-08-06T05:59:10;10.00;;;9.20;;
9304;SDS011;4690;52.422;13.486;2023-08-06T06:01:36;8.45;;;7.85;;
9304;SDS011;4690;52.422;13.486;2023-08-06T06:04:01;8.30;;;7.60;;
9304;SDS011;4690;52.422;13.486;2023-08-06T06:06:27;8.90;;;8.30;;
9304;SDS011;4690;52.422;13.486;2023-08-06T06:08:53;9.15;;;8.45;;
9304;SDS011;4690;52.422;13.486;2023-08-06T06:11:19;8.82;;;8.13;;
9304;SDS011;4690;52.422;13.486;2023-08-06T06:13:47;9.77;;;8.98;;
9304;SDS011;4690;52.422;13.486;2023-08-06T06:16:16;8.45;;;7.85;;
9304;SDS011;4690;52.422;13.486;2023-08-06T06:18:42;9.13;;;8.43;;
9304;SDS011;4690;52.422;13.486;2023-08-06T06:21:07;8.68;;;7.97;;
9304;SDS011;4690;52.422;13.486;2023-08-06T06:23:33;9.13;;;8.43;;
9304;SDS011;4690;52.422;13.486;2023-08-06T06:25:59;7.80;;;7.20;;
9304;SDS011;4690;52.422;13.486;2023-08-06T06:28:25;9.90;;;9.10;;
9304;SDS011;4690;52.422;13.486;2023-08-06T06:30:51;9.18;;;8.45;;
9304;SDS011;4690;52.422;13.486;2023-08-06T06:33:17;8.63;;;7.93;;
9304;SDS011;4690;52.422;13.486;2023-08-06T06:35:42;11.00;;;10.05;;
9304;SDS011;4690;52.422;13.486;2023-08-06T06:38:08;9.38;;;8.68;;
9304;SDS011;4690;52.422;13.486;2023-08-06T06:40:34;9.23;;;8.52;;
9304;SDS011;4690;52.422;13.486;2023-08-06T06:43:00;8.98;;;8.20;;
9304;SDS011;4690;52.422;13.486;2023-08-06T06:45:25;10.30;;;9.48;;
9304;SDS011;4690;52.422;13.486;2023-08-06T06:47:51;9.65;;;8.85;;
9304;SDS011;4690;52.422;13.486;2023-08-06T06:50:17;9.38;;;8.57;;
9304;SDS011;4690;52.422;13.486;2023-08-06T06:52:42;8.18;;;7.47;;
9304;SDS011;4690;52.422;13.486;2023-08-06T06:55:08;9.45;;;8.73;;
9304;SDS011;4690;52.422;13.486;2023-08-06T06:57:34;9.38;;;8.57;;
9304;SDS011;4690;52.422;13.486;2023-08-06T07:00:00;7.72;;;7.13;;
9304;SDS011;4690;52.422;13.486;2023-08-06T07:02:26;8.55;;;7.85;;
9304;SDS011;4690;52.422;13.486;2023-08-06T07:04:51;7.43;;;6.93;;
9304;SDS011;4690;52.422;13.486;2023-08-06T07:07:17;8.45;;;7.80;;
9304;SDS011;4690;52.422;13.486;2023-08-06T07:09:43;9.05;;;8.25;;
9304;SDS011;4690;52.422;13.486;2023-08-06T07:12:09;7.20;;;6.60;;
9304;SDS011;4690;52.422;13.486;2023-08-06T07:14:35;7.20;;;6.70;;
9304;SDS011;4690;52.422;13.486;2023-08-06T07:17:01;8.38;;;7.68;;
9304;SDS011;4690;52.422;13.486;2023-08-06T07:19:27;8.82;;;8.05;;
9304;SDS011;4690;52.422;13.486;2023-08-06T07:21:53;8.68;;;7.88;;
9304;SDS011;4690;52.422;13.486;2023-08-06T07:24:18;8.57;;;7.88;;
9304;SDS011;4690;52.422;13.486;2023-08-06T07:26:44;8.68;;;8.00;;
9304;SDS011;4690;52.422;13.486;2023-08-06T07:29:10;7.90;;;7.30;;
9304;SDS011;4690;52.422;13.486;2023-08-06T07:31:36;9.18;;;8.38;;
9304;SDS011;4690;52.422;13.486;2023-08-06T07:34:01;8.82;;;8.23;;
9304;SDS011;4690;52.422;13.486;2023-08-06T07:36:27;9.40;;;8.60;;
9304;SDS011;4690;52.422;13.486;2023-08-06T07:38:53;9.88;;;8.88;;
9304;SDS011;4690;52.422;13.486;2023-08-06T07:41:24;10.07;;;9.07;;
9304;SDS011;4690;52.422;13.486;2023-08-06T07:43:50;9.57;;;8.77;;
9304;SDS011;4690;52.422;13.486;2023-08-06T07:46:15;8.45;;;7.78;;
9304;SDS011;4690;52.422;13.486;2023-08-06T07:48:41;8.38;;;7.68;;
9304;SDS011;4690;52.422;13.486;2023-08-06T07:51:07;8.82;;;7.68;;
9304;SDS011;4690;52.422;13.486;2023-08-06T07:53:33;8.52;;;7.82;;
9304;SDS011;4690;52.422;13.486;2023-08-06T07:55:58;8.38;;;7.68;;
9304;SDS011;4690;52.422;13.486;2023-08-06T07:58:26;8.35;;;7.75;;
9304;SDS011;4690;52.422;13.486;2023-08-06T08:00:54;8.43;;;7.82;;
9304;SDS011;4690;52.422;13.486;2023-08-06T08:03:20;7.85;;;7.20;;
9304;SDS011;4690;52.422;13.486;2023-08-06T08:05:46;8.27;;;7.68;;
9304;SDS011;4690;52.422;13.486;2023-08-06T08:08:12;8.00;;;7.30;;
9304;SDS011;4690;52.422;13.486;2023-08-06T08:10:38;8.70;;;8.00;;
9304;SDS011;4690;52.422;13.486;2023-08-06T08:13:04;8.40;;;7.80;;
9304;SDS011;4690;52.422;13.486;2023-08-06T08:15:31;8.18;;;7.57;;
9304;SDS011;4690;52.422;13.486;2023-08-06T08:17:58;9.45;;;8.65;;
9304;SDS011;4690;52.422;13.486;2023-08-06T08:20:24;9.20;;;8.50;;
9304;SDS011;4690;52.422;13.486;2023-08-06T08:22:56;10.77;;;9.77;;
9304;SDS011;4690;52.422;13.486;2023-08-06T08:25:23;10.73;;;9.73;;
9304;SDS011;4690;52.422;13.486;2023-08-06T08:27:49;9.00;;;8.30;;
9304;SDS011;4690;52.422;13.486;2023-08-06T08:30:15;9.55;;;8.63;;
9304;SDS011;4690;52.422;13.486;2023-08-06T08:32:40;9.68;;;8.77;;
9304;SDS011;4690;52.422;13.486;2023-08-06T08:35:06;10.23;;;9.43;;
9304;SDS011;4690;52.422;13.486;2023-08-06T08:37:32;9.77;;;9.00;;
9304;SDS011;4690;52.422;13.486;2023-08-06T08:39:58;10.43;;;9.55;;
9304;SDS011;4690;52.422;13.486;2023-08-06T08:42:25;11.15;;;10.18;;
9304;SDS011;4690;52.422;13.486;2023-08-06T08:44:51;10.70;;;9.80;;
9304;SDS011;4690;52.422;13.486;2023-08-06T08:47:19;11.05;;;10.15;;
9304;SDS011;4690;52.422;13.486;2023-08-06T08:49:45;10.45;;;9.65;;
9304;SDS011;4690;52.422;13.486;2023-08-06T08:52:13;9.52;;;8.73;;
9304;SDS011;4690;52.422;13.486;2023-08-06T08:54:42;11.10;;;10.10;;
9304;SDS011;4690;52.422;13.486;2023-08-06T08:57:10;10.82;;;9.88;;
9304;SDS011;4690;52.422;13.486;2023-08-06T08:59:36;10.57;;;9.65;;
9304;SDS011;4690;52.422;13.486;2023-08-06T09:02:02;10.18;;;9.27;;
9304;SDS011;4690;52.422;13.486;2023-08-06T09:04:31;10.45;;;9.57;;
9304;SDS011;4690;52.422;13.486;2023-08-06T09:06:57;12.77;;;11.48;;
9304;SDS011;4690;52.422;13.486;2023-08-06T09:09:33;12.07;;;11.07;;
9304;SDS011;4690;52.422;13.486;2023-08-06T09:12:05;11.45;;;10.35;;
9304;SDS011;4690;52.422;13.486;2023-08-06T09:14:37;12.05;;;11.05;;
9304;SDS011;4690;52.422;13.486;2023-08-06T09:17:03;12.02;;;11.13;;
9304;SDS011;4690;52.422;13.486;2023-08-06T09:19:31;13.55;;;12.40;;
9304;SDS011;4690;52.422;13.486;2023-08-06T09:21:58;13.10;;;12.00;;
9304;SDS011;4690;52.422;13.486;2023-08-06T09:24:24;12.43;;;11.32;;
9304;SDS011;4690;52.422;13.486;2023-08-06T09:26:53;13.25;;;12.25;;
9304;SDS011;4690;52.422;13.486;2023-08-06T09:29:20;14.68;;;13.38;;
9304;SDS011;4690;52.422;13.486;2023-08-06T09:31:49;13.75;;;12.65;;
9304;SDS011;4690;52.422;13.486;2023-08-06T09:34:19;14.70;;;13.30;;
9304;SDS011;4690;52.422;13.486;2023-08-06T09:36:51;14.02;;;12.73;;
9304;SDS011;4690;52.422;13.486;2023-08-06T09:39:25;13.27;;;12.15;;
9304;SDS011;4690;52.422;13.486;2023-08-06T09:41:56;13.02;;;11.88;;
9304;SDS011;4690;52.422;13.486;2023-08-06T09:44:24;13.20;;;12.15;;
9304;SDS011;4690;52.422;13.486;2023-08-06T09:46:56;15.95;;;14.60;;
9304;SDS011;4690;52.422;13.486;2023-08-06T09:51:59;14.52;;;13.10;;
9304;SDS011;4690;52.422;13.486;2023-08-06T09:54:25;15.95;;;14.48;;
9304;SDS011;4690;52.422;13.486;2023-08-06T09:56:53;14.00;;;12.68;;
9304;SDS011;4690;52.422;13.486;2023-08-06T09:59:20;14.15;;;12.80;;
9304;SDS011;4690;52.422;13.486;2023-08-06T10:01:47;12.43;;;11.43;;
9304;SDS011;4690;52.422;13.486;2023-08-06T10:04:14;12.68;;;11.65;;
9304;SDS011;4690;52.422;13.486;2023-08-06T10:06:41;13.30;;;12.07;;
9304;SDS011;4690;52.422;13.486;2023-08-06T10:09:11;14.48;;;13.27;;
9304;SDS011;4690;52.422;13.486;2023-08-06T10:11:37;14.10;;;12.88;;
9304;SDS011;4690;52.422;13.486;2023-08-06T10:14:14;13.50;;;12.32;;
9304;SDS011;4690;52.422;13.486;2023-08-06T10:16:48;14.77;;;13.57;;
9304;SDS011;4690;52.422;13.486;2023-08-06T10:19:15;14.65;;;13.48;;
9304;SDS011;4690;52.422;13.486;2023-08-06T10:27:30;14.30;;;13.10;;
9304;SDS011;4690;52.422;13.486;2023-08-06T10:32:58;16.40;;;15.00;;
9304;SDS011;4690;52.422;13.486;2023-08-06T10:38:04;17.10;;;15.60;;
9304;SDS011;4690;52.422;13.486;2023-08-06T10:40:38;21.27;;;19.48;;
9304;SDS011;4690;52.422;13.486;2023-08-06T10:43:06;18.45;;;16.85;;
9304;SDS011;4690;52.422;13.486;2023-08-06T10:45:34;17.40;;;15.90;;
9304;SDS011;4690;52.422;13.486;2023-08-06T10:48:01;15.38;;;14.07;;
9304;SDS011;4690;52.422;13.486;2023-08-06T10:50:27;14.50;;;13.30;;
9304;SDS011;4690;52.422;13.486;2023-08-06T10:52:53;14.60;;;13.32;;
9304;SDS011;4690;52.422;13.486;2023-08-06T10:55:24;15.98;;;14.48;;
9304;SDS011;4690;52.422;13.486;2023-08-06T10:57:52;13.35;;;12.18;;
9304;SDS011;4690;52.422;13.486;2023-08-06T11:00:20;11.85;;;10.90;;
9304;SDS011;4690;52.422;13.486;2023-08-06T11:02:49;12.80;;;11.60;;
9304;SDS011;4690;52.422;13.486;2023-08-06T11:05:17;14.70;;;13.40;;
9304;SDS011;4690;52.422;13.486;2023-08-06T11:07:43;12.80;;;11.68;;
9304;SDS011;4690;52.422;13.486;2023-08-06T11:10:11;12.77;;;11.70;;
9304;SDS011;4690;52.422;13.486;2023-08-06T11:12:38;13.73;;;12.52;;
9304;SDS011;4690;52.422;13.486;2023-08-06T11:15:04;16.65;;;15.05;;
9304;SDS011;4690;52.422;13.486;2023-08-06T11:17:31;17.77;;;15.95;;
9304;SDS011;4690;52.422;13.486;2023-08-06T11:19:59;16.30;;;14.90;;
9304;SDS011;4690;52.422;13.486;2023-08-06T11:22:30;14.57;;;13.27;;
9304;SDS011;4690;52.422;13.486;2023-08-06T11:24:56;13.00;;;11.88;;
9304;SDS011;4690;52.422;13.486;2023-08-06T11:27:22;14.88;;;13.40;;
9304;SDS011;4690;52.422;13.486;2023-08-06T11:29:51;13.10;;;12.00;;
9304;SDS011;4690;52.422;13.486;2023-08-06T11:32:17;12.48;;;11.38;;
9304;SDS011;4690;52.422;13.486;2023-08-06T11:34:43;11.38;;;10.48;;
9304;SDS011;4690;52.422;13.486;2023-08-06T11:37:09;12.38;;;11.27;;
9304;SDS011;4690;52.422;13.486;2023-08-06T11:39:36;12.00;;;10.90;;
9304;SDS011;4690;52.422;13.486;2023-08-06T11:42:04;11.43;;;10.43;;
9304;SDS011;4690;52.422;13.486;2023-08-06T11:44:34;11.13;;;10.20;;
9304;SDS011;4690;52.422;13.486;2023-08-06T11:47:02;12.73;;;11.63;;
9304;SDS011;4690;52.422;13.486;2023-08-06T11:49:49;10.68;;;9.77;;
9304;SDS011;4690;52.422;13.486;2023-08-06T11:52:21;12.07;;;10.98;;
9304;SDS011;4690;52.422;13.486;2023-08-06T11:55:02;12.60;;;11.48;;
9304;SDS011;4690;52.422;13.486;2023-08-06T11:57:35;14.05;;;12.57;;
9304;SDS011;4690;52.422;13.486;2023-08-06T12:00:13;16.88;;;13.85;;
9304;SDS011;4690;52.422;13.486;2023-08-06T12:02:39;15.52;;;14.02;;
9304;SDS011;4690;52.422;13.486;2023-08-06T12:07:41;14.13;;;12.93;;
9304;SDS011;4690;52.422;13.486;2023-08-06T12:10:09;16.20;;;14.73;;
9304;SDS011;4690;52.422;13.486;2023-08-06T12:12:36;15.63;;;14.25;;
9304;SDS011;4690;52.422;13.486;2023-08-06T12:15:03;15.43;;;14.00;;
9304;SDS011;4690;52.422;13.486;2023-08-06T12:17:31;15.90;;;14.25;;
9304;SDS011;4690;52.422;13.486;2023-08-06T12:19:58;14.55;;;13.35;;
9304;SDS011;4690;52.422;13.486;2023-08-06T12:22:24;14.65;;;13.35;;
9304;SDS011;4690;52.422;13.486;2023-08-06T12:24:50;16.80;;;15.23;;
9304;SDS011;4690;52.422;13.486;2023-08-06T12:27:16;16.50;;;14.75;;
9304;SDS011;4690;52.422;13.486;2023-08-06T12:29:42;17.25;;;15.45;;
9304;SDS011;4690;52.422;13.486;2023-08-06T12:32:10;15.02;;;13.65;;
9304;SDS011;4690;52.422;13.486;2023-08-06T12:34:38;15.30;;;13.98;;
9304;SDS011;4690;52.422;13.486;2023-08-06T12:37:04;17.15;;;15.57;;
9304;SDS011;4690;52.422;13.486;2023-08-06T12:39:31;15.75;;;14.30;;
9304;SDS011;4690;52.422;13.486;2023-08-06T12:41:58;13.70;;;12.50;;
9304;SDS011;4690;52.422;13.486;2023-08-06T12:44:28;17.52;;;15.68;;
9304;SDS011;4690;52.422;13.486;2023-08-06T12:46:54;14.32;;;12.93;;
9304;SDS011;4690;52.422;13.486;2023-08-06T12:49:19;14.32;;;12.93;;
9304;SDS011;4690;52.422;13.486;2023-08-06T12:51:46;15.40;;;13.88;;
9304;SDS011;4690;52.422;13.486;2023-08-06T12:54:13;15.50;;;12.95;;
9304;SDS011;4690;52.422;13.486;2023-08-06T12:56:39;12.52;;;11.43;;
9304;SDS011;4690;52.422;13.486;2023-08-06T12:59:05;12.23;;;11.13;;
9304;SDS011;4690;52.422;13.486;2023-08-06T13:01:31;12.48;;;11.48;;
9304;SDS011;4690;52.422;13.486;2023-08-06T13:03:57;12.10;;;11.10;;
9304;SDS011;4690;52.422;13.486;2023-08-06T13:06:24;10.95;;;9.95;;
9304;SDS011;4690;52.422;13.486;2023-08-06T13:08:50;11.40;;;10.50;;
9304;SDS011;4690;52.422;13.486;2023-08-06T13:11:16;13.38;;;11.65;;
9304;SDS011;4690;52.422;13.486;2023-08-06T13:13:42;12.48;;;11.25;;
9304;SDS011;4690;52.422;13.486;2023-08-06T13:16:08;11.90;;;10.90;;
9304;SDS011;4690;52.422;13.486;2023-08-06T13:18:33;11.57;;;10.57;;
9304;SDS011;4690;52.422;13.486;2023-08-06T13:20:59;11.30;;;10.40;;
9304;SDS011;4690;52.422;13.486;2023-08-06T13:23:25;11.35;;;10.35;;
9304;SDS011;4690;52.422;13.486;2023-08-06T13:25:50;11.38;;;10.48;;
9304;SDS011;4690;52.422;13.486;2023-08-06T13:28:16;11.48;;;10.35;;
9304;SDS011;4690;52.422;13.486;2023-08-06T13:30:42;12.38;;;11.18;;
9304;SDS011;4690;52.422;13.486;2023-08-06T13:33:08;11.20;;;10.30;;
9304;SDS011;4690;52.422;13.486;2023-08-06T13:35:35;11.93;;;10.82;;
9304;SDS011;4690;52.422;13.486;2023-08-06T13:38:00;12.10;;;11.00;;
9304;SDS011;4690;52.422;13.486;2023-08-06T13:40:33;10.68;;;9.77;;
9304;SDS011;4690;52.422;13.486;2023-08-06T13:42:59;12.88;;;11.40;;
9304;SDS011;4690;52.422;13.486;2023-08-06T13:45:25;10.88;;;9.85;;
9304;SDS011;4690;52.422;13.486;2023-08-06T13:47:51;13.02;;;10.80;;
9304;SDS011;4690;52.422;13.486;2023-08-06T13:50:17;11.80;;;10.73;;
9304;SDS011;4690;52.422;13.486;2023-08-06T13:52:44;10.70;;;9.70;;
9304;SDS011;4690;52.422;13.486;2023-08-06T13:55:09;11.75;;;10.35;;
9304;SDS011;4690;52.422;13.486;2023-08-06T13:57:35;11.13;;;10.07;;
9304;SDS011;4690;52.422;13.486;2023-08-06T14:00:01;10.77;;;9.52;;
9304;SDS011;4690;52.422;13.486;2023-08-06T14:02:27;11.73;;;10.52;;
9304;SDS011;4690;52.422;13.486;2023-08-06T14:04:54;9.85;;;8.95;;
9304;SDS011;4690;52.422;13.486;2023-08-06T14:07:20;10.25;;;9.25;;
9304;SDS011;4690;52.422;13.486;2023-08-06T14:09:46;9.85;;;9.02;;
9304;SDS011;4690;52.422;13.486;2023-08-06T14:12:12;10.85;;;9.95;;
9304;SDS011;4690;52.422;13.486;2023-08-06T14:14:39;11.90;;;10.65;;
9304;SDS011;4690;52.422;13.486;2023-08-06T14:17:05;12.55;;;11.02;;
9304;SDS011;4690;52.422;13.486;2023-08-06T14:19:31;20.10;;;12.88;;
9304;SDS011;4690;52.422;13.486;2023-08-06T14:21:57;11.45;;;10.38;;
9304;SDS011;4690;52.422;13.486;2023-08-06T14:24:23;12.52;;;11.23;;
9304;SDS011;4690;52.422;13.486;2023-08-06T14:26:48;11.27;;;10.18;;
9304;SDS011;4690;52.422;13.486;2023-08-06T14:29:14;10.35;;;9.35;;
9304;SDS011;4690;52.422;13.486;2023-08-06T14:31:40;15.95;;;12.55;;
9304;SDS011;4690;52.422;13.486;2023-08-06T14:34:06;12.57;;;11.27;;
9304;SDS011;4690;52.422;13.486;2023-08-06T14:36:32;14.38;;;11.57;;
9304;SDS011;4690;52.422;13.486;2023-08-06T14:38:58;12.45;;;11.35;;
9304;SDS011;4690;52.422;13.486;2023-08-06T14:41:24;18.35;;;13.73;;
9304;SDS011;4690;52.422;13.486;2023-08-06T14:43:50;12.77;;;11.48;;
9304;SDS011;4690;52.422;13.486;2023-08-06T14:46:16;14.68;;;12.95;;
9304;SDS011;4690;52.422;13.486;2023-08-06T14:48:42;14.13;;;11.77;;
9304;SDS011;4690;52.422;13.486;2023-08-06T14:51:08;10.90;;;10.00;;
9304;SDS011;4690;52.422;13.486;2023-08-06T14:53:34;15.10;;;11.50;;
9304;SDS011;4690;52.422;13.486;2023-08-06T14:56:00;10.40;;;9.48;;
9304;SDS011;4690;52.422;13.486;2023-08-06T14:58:25;12.52;;;10.85;;
9304;SDS011;4690;52.422;13.486;2023-08-06T15:00:52;12.02;;;10.80;;
9304;SDS011;4690;52.422;13.486;2023-08-06T15:03:17;12.75;;;10.32;;
9304;SDS011;4690;52.422;13.486;2023-08-06T15:05:44;10.77;;;9.68;;
9304;SDS011;4690;52.422;13.486;2023-08-06T15:08:12;10.55;;;9.52;;
9304;SDS011;4690;52.422;13.486;2023-08-06T15:10:38;10.90;;;9.90;;
9304;SDS011;4690;52.422;13.486;2023-08-06T15:13:04;8.95;;;8.13;;
9304;SDS011;4690;52.422;13.486;2023-08-06T15:15:30;9.48;;;8.63;;
9304;SDS011;4690;52.422;13.486;2023-08-06T15:17:55;10.93;;;9.65;;